Time;durP1;ratioP1;P1;durP2;ratioP2;P2;SDS_P1;SDS_P2;PMS_P1;PMS_P2;Temp;Humidity;BMP_temperature;BMP_pressure;BME280_temperature;BME280_humidity;BME280_pressure;Samples;Min_cycle;Max_cycle;Signal;HPM_P1;HPM_P2
2022/12/11 00:00:22;;;;;;;8.77;8.15;;;;;;;-0.66;71.30;100642.31;4214080;28;20312;-58
2022/12/11 00:02:25;;;;;;;8.73;8.13;;;;;;;-0.65;71.26;100643.16;4214693;28;20291;-58
2022/12/11 00:04:32;;;;;;;7.75;7.18;;;;;;;-0.64;71.52;100643.06;4214828;28;20300;-58
2022/12/11 00:06:37;;;;;;;8.18;7.65;;;;;;;-0.66;71.52;100650.28;4213723;28;20314;-59
2022/12/11 00:08:39;;;;;;;8.75;8.15;;;;;;;-0.67;71.44;100643.28;4212676;28;20309;-58
2022/12/11 00:10:47;;;;;;;8.30;7.78;;;;;;;-0.68;71.45;100643.38;4213848;28;20309;-58
2022/12/11 00:12:50;;;;;;;8.70;8.10;;;;;;;-0.69;71.54;100637.22;4214777;28;20276;-59
2022/12/11 00:14:52;;;;;;;8.20;7.63;;;;;;;-0.66;71.63;100636.16;4214478;28;20286;-58
2022/12/11 00:16:56;;;;;;;8.82;8.20;;;;;;;-0.66;71.89;100637.03;4213514;28;20264;-59
2022/12/11 00:18:58;;;;;;;8.88;8.27;;;;;;;-0.65;72.26;100635.19;4214483;28;20305;-57
2022/12/11 00:21:01;;;;;;;8.25;7.65;;;;;;;-0.68;72.00;100625.66;4213826;28;20317;-58
2022/12/11 00:23:05;;;;;;;8.77;8.18;;;;;;;-0.66;71.76;100631.72;4214302;28;20284;-58
2022/12/11 00:25:08;;;;;;;11.07;10.18;;;;;;;-0.67;71.38;100626.50;4183132;28;20898;-59
2022/12/11 00:27:11;;;;;;;8.73;8.10;;;;;;;-0.69;71.31;100626.63;4207919;28;20282;-58
2022/12/11 00:29:16;;;;;;;9.50;8.80;;;;;;;-0.69;71.41;100626.63;4214515;28;20591;-58
2022/12/11 00:31:19;;;;;;;9.27;8.57;;;;;;;-0.67;71.67;100634.47;4213214;28;20340;-57
2022/12/11 00:33:22;;;;;;;8.75;8.10;;;;;;;-0.69;71.25;100637.22;4214346;28;20277;-59
2022/12/11 00:35:25;;;;;;;8.13;7.53;;;;;;;-0.70;71.19;100640.00;4213050;28;20320;-59
2022/12/11 00:37:28;;;;;;;10.52;9.73;;;;;;;-0.71;71.42;100632.97;4213387;28;20667;-59
2022/12/11 00:39:30;;;;;;;9.68;8.98;;;;;;;-0.73;71.31;100631.28;4214041;28;20297;-60
2022/12/11 00:41:32;;;;;;;7.97;7.45;;;;;;;-0.71;71.46;100630.31;4213626;28;20316;-59
2022/12/11 00:43:35;;;;;;;7.80;7.30;;;;;;;-0.72;71.42;100624.19;4214039;28;20623;-59
2022/12/11 00:45:40;;;;;;;9.68;9.07;;;;;;;-0.74;71.58;100624.28;4212829;28;20722;-58
2022/12/11 00:47:42;;;;;;;9.05;8.38;;;;;;;-0.71;71.71;100628.50;4196054;28;20297;-57
2022/12/11 00:49:46;;;;;;;7.97;7.45;;;;;;;-0.71;71.61;100625.03;4202617;28;20305;-58
2022/12/11 00:51:48;;;;;;;8.43;7.82;;;;;;;-0.73;71.86;100631.28;4213361;28;20748;-59
2022/12/11 00:53:50;;;;;;;7.93;7.32;;;;;;;-0.69;72.11;100633.72;4213909;28;20735;-58
2022/12/11 00:55:53;;;;;;;8.93;8.30;;;;;;;-0.70;71.73;100630.22;4210191;28;20312;-58
2022/12/11 00:57:56;;;;;;;7.90;7.38;;;;;;;-0.68;71.71;100625.66;4211979;28;20300;-58
2022/12/11 00:59:59;;;;;;;8.88;8.18;;;;;;;-0.69;71.52;100631.94;4213256;28;20279;-58
2022/12/11 01:02:01;;;;;;;8.20;7.60;;;;;;;-0.70;71.27;100630.22;4213970;28;20289;-58
2022/12/11 01:04:03;;;;;;;8.13;7.53;;;;;;;-0.73;71.02;100631.28;4213622;28;20290;-59
2022/12/11 01:06:07;;;;;;;8.23;7.63;;;;;;;-0.73;71.23;100628.63;4212638;28;20241;-59
2022/12/11 01:08:10;;;;;;;8.52;7.88;;;;;;;-0.72;71.31;100624.19;4212538;28;20280;-56
2022/12/11 01:10:24;;;;;;;55.17;29.07;;;;;;;-0.67;72.33;100630.00;4212793;28;20284;-57
2022/12/11 01:12:27;;;;;;;481.03;345.73;;;;;;;-0.61;72.46;100628.72;4213902;28;21020;-55
2022/12/11 01:14:29;;;;;;;510.80;409.43;;;;;;;-0.58;71.99;100632.00;4213723;28;20281;-59
2022/12/11 01:16:32;;;;;;;506.97;431.30;;;;;;;-0.53;72.05;100628.16;4212500;28;20316;-55
2022/12/11 01:18:34;;;;;;;459.13;292.47;;;;;;;-0.49;71.62;100634.97;4213370;28;20927;-57
2022/12/11 01:20:38;;;;;;;8.48;7.88;;;;;;;-0.52;71.50;100624.56;4210429;28;20810;-58
2022/12/11 01:22:41;;;;;;;8.70;8.10;;;;;;;-0.49;71.03;100640.28;4213354;28;20277;-59
2022/12/11 01:24:44;;;;;;;8.73;8.07;;;;;;;-0.55;71.12;100637.09;4213332;28;20298;-59
2022/12/11 01:26:46;;;;;;;11.25;10.25;;;;;;;-0.56;71.33;100645.19;4206658;28;20224;-56
2022/12/11 01:28:49;;;;;;;8.27;7.68;;;;;;;-0.58;71.41;100641.75;4203363;28;20769;-59
2022/12/11 01:30:52;;;;;;;8.50;7.80;;;;;;;-0.58;71.56;100647.06;4206862;28;20314;-55
2022/12/11 01:32:54;;;;;;;8.63;7.95;;;;;;;-0.59;71.64;100645.38;4208056;28;20288;-55
2022/12/11 01:34:56;;;;;;;10.23;9.40;;;;;;;-0.61;71.19;100642.84;4207692;28;20401;-59
2022/12/11 01:36:59;;;;;;;7.70;7.10;;;;;;;-0.62;71.17;100640.28;4212027;28;20254;-58
2022/12/11 01:39:02;;;;;;;7.75;7.20;;;;;;;-0.63;71.45;100643.91;4213014;28;20297;-59
2022/12/11 01:41:05;;;;;;;8.02;7.43;;;;;;;-0.64;71.46;100639.53;4215042;28;20315;-58
2022/12/11 01:43:10;;;;;;;8.55;7.95;;;;;;;-0.64;71.46;100636.88;4213172;28;20289;-56
2022/12/11 01:45:29;;;;;;;9.93;9.18;;;;;;;-0.67;71.32;100632.66;4211222;28;20749;-57
2022/12/11 01:47:31;;;;;;;9.18;8.57;;;;;;;-0.66;71.63;100638.81;4212881;28;20196;-55
2022/12/11 01:49:33;;;;;;;8.35;7.75;;;;;;;-0.64;71.62;100634.22;4213422;28;20243;-54
2022/12/11 01:51:38;;;;;;;7.55;7.00;;;;;;;-0.64;71.61;100639.53;4212876;28;20979;-56
2022/12/11 01:53:45;;;;;;;8.40;7.80;;;;;;;-0.65;71.72;100635.19;4213011;28;20286;-55
2022/12/11 01:55:50;;;;;;;9.35;8.60;;;;;;;-0.64;71.92;100642.19;4211506;28;20321;-55
2022/12/11 01:57:53;;;;;;;7.75;7.22;;;;;;;-0.65;71.46;100651.13;4212817;28;20282;-57
2022/12/11 01:59:56;;;;;;;171.13;45.22;;;;;;;-0.66;71.56;100639.66;4213223;28;20284;-55
2022/12/11 02:02:01;;;;;;;310.17;81.18;;;;;;;-0.62;72.03;100638.47;4211522;28;20320;-59
2022/12/11 02:04:04;;;;;;;313.85;83.63;;;;;;;-0.60;71.94;100638.38;4212678;28;20328;-58
2022/12/11 02:06:26;;;;;;;7.00;6.43;;;;;;;-0.60;72.01;100633.91;4212033;28;20325;-55
2022/12/11 02:08:29;;;;;;;237.35;61.67;;;;;;;-0.56;72.22;100640.69;4209663;28;20245;-60
2022/12/11 02:10:42;;;;;;;160.18;45.85;;;;;;;-0.55;72.03;100631.81;4211650;28;20321;-59
2022/12/11 02:12:55;;;;;;;6.28;5.78;;;;;;;-0.58;71.41;100633.78;4213408;28;20293;-58
2022/12/11 02:15:04;;;;;;;10.20;9.25;;;;;;;-0.60;71.58;100636.56;4212666;28;20281;-58
2022/12/11 02:17:11;;;;;;;8.00;7.32;;;;;;;-0.62;70.97;100640.28;4198840;28;20308;-56
2022/12/11 02:19:30;;;;;;;7.10;6.50;;;;;;;-0.67;70.60;100639.78;4211838;28;20252;-55
2022/12/11 02:21:35;;;;;;;36.40;14.05;;;;;;;-0.76;70.38;100630.66;4211896;28;20312;-57
2022/12/11 02:24:11;;;;;;;7.95;7.38;;;;;;;-0.81;70.70;100630.97;4210011;28;20293;-57
2022/12/11 02:26:25;;;;;;;318.13;84.60;;;;;;;-0.82;71.10;100634.56;4208610;28;20754;-58
2022/12/11 02:28:32;;;;;;;7.47;6.88;;;;;;;-0.78;71.44;100637.88;4194348;28;20658;-56
2022/12/11 02:30:37;;;;;;;8.30;7.68;;;;;;;-0.79;71.48;100633.50;4211919;28;20642;-59
2022/12/11 02:32:45;;;;;;;7.07;6.47;;;;;;;-0.79;71.47;100629.03;4212756;28;20224;-58
2022/12/11 02:34:50;;;;;;;7.97;7.28;;;;;;;-0.78;71.64;100627.25;4212542;28;20260;-59
2022/12/11 02:36:54;;;;;;;5.85;5.43;;;;;;;-0.76;71.53;100634.13;4212109;28;20308;-59
2022/12/11 02:38:59;;;;;;;6.88;6.28;;;;;;;-0.75;71.76;100633.19;4212488;28;20312;-58
2022/12/11 02:41:03;;;;;;;7.45;6.85;;;;;;;-0.74;71.51;100628.72;4211955;28;20312;-60
2022/12/11 02:43:08;;;;;;;5.55;5.13;;;;;;;-0.74;71.53;100626.94;4199803;28;20223;-59
2022/12/11 02:45:13;;;;;;;8.63;7.82;;;;;;;-0.74;71.16;100631.38;4211584;28;20265;-58
2022/12/11 02:47:16;;;;;;;6.88;6.25;;;;;;;-0.75;71.21;100625.22;4212426;28;20280;-58
2022/12/11 02:49:20;;;;;;;7.75;7.05;;;;;;;-0.74;71.04;100631.38;4212606;28;20691;-60
2022/12/11 02:51:28;;;;;;;7.15;6.55;;;;;;;-0.75;70.89;100635.00;4211548;28;20805;-56
2022/12/11 02:53:32;;;;;;;7.75;7.05;;;;;;;-0.79;70.84;100628.19;4200475;28;20303;-58
2022/12/11 02:55:35;;;;;;;6.97;6.38;;;;;;;-0.78;70.71;100628.09;4211766;28;20304;-59
2022/12/11 02:57:42;;;;;;;6.78;6.25;;;;;;;-0.84;71.03;100622.38;4207775;28;20269;-59
2022/12/11 02:59:46;;;;;;;6.03;5.53;;;;;;;-0.81;71.31;100630.13;4212780;28;20301;-59
2022/12/11 03:01:50;;;;;;;5.45;5.00;;;;;;;-0.80;71.40;100632.66;4211878;28;20305;-58
2022/12/11 03:03:52;;;;;;;6.88;6.28;;;;;;;-0.78;71.34;100629.91;4212386;28;20672;-58
2022/12/11 03:05:55;;;;;;;6.22;5.72;;;;;;;-0.83;71.16;100624.06;4211546;28;20661;-56
2022/12/11 03:07:57;;;;;;;310.77;78.53;;;;;;;-0.83;71.34;100619.63;4212276;28;20292;-57
2022/12/11 03:10:00;;;;;;;92.97;26.35;;;;;;;-0.81;71.30;100622.16;4211484;28;20194;-57
2022/12/11 03:12:02;;;;;;;7.68;7.05;;;;;;;-0.84;71.24;100620.56;4212320;28;20273;-59
2022/12/11 03:14:05;;;;;;;6.72;6.22;;;;;;;-0.81;71.62;100632.78;4212737;28;20289;-60
2022/12/11 03:16:12;;;;;;;6.57;6.05;;;;;;;-0.80;71.44;100626.50;4211609;28;20309;-60
2022/12/11 03:18:21;;;;;;;7.32;6.72;;;;;;;-0.82;71.33;100626.59;4212510;28;20198;-59
2022/12/11 03:20:33;;;;;;;7.32;6.72;;;;;;;-0.85;71.24;100624.16;4211911;28;20629;-57
2022/12/11 03:22:39;;;;;;;8.20;7.43;;;;;;;-0.87;71.45;100619.94;4212490;28;20280;-59
2022/12/11 03:24:45;;;;;;;6.90;6.30;;;;;;;-0.87;71.65;100625.25;4212355;28;20284;-59
2022/12/11 03:26:52;;;;;;;6.90;6.38;;;;;;;-0.87;71.87;100627.91;4207883;28;20314;-59
2022/12/11 03:28:58;;;;;;;7.10;6.50;;;;;;;-0.86;72.04;100622.47;4207328;28;20301;-59
2022/12/11 03:31:04;;;;;;;6.95;6.40;;;;;;;-0.87;72.04;100620.78;4213191;28;20237;-62
2022/12/11 03:33:09;;;;;;;7.45;6.85;;;;;;;-0.82;71.81;100626.59;4215357;28;20301;-56
2022/12/11 03:35:16;;;;;;;8.93;8.13;;;;;;;-0.81;71.68;100623.00;4214042;28;20316;-59
2022/12/11 03:37:19;;;;;;;6.65;6.10;;;;;;;-0.80;71.49;100631.78;4215429;28;20280;-59
2022/12/11 03:39:24;;;;;;;7.47;6.88;;;;;;;-0.81;71.41;100630.97;4214947;28;20309;-58
2022/12/11 03:41:28;;;;;;;7.38;6.78;;;;;;;-0.82;71.46;100623.94;4211694;28;20300;-60
2022/12/11 03:43:31;;;;;;;7.32;6.72;;;;;;;-0.81;71.30;100616.88;4214273;28;20631;-60
2022/12/11 03:45:35;;;;;;;5.88;5.47;;;;;;;-0.83;71.35;100629.34;4213914;28;20304;-59
2022/12/11 03:47:38;;;;;;;7.78;7.07;;;;;;;-0.84;71.56;100620.56;4214911;28;20285;-58
2022/12/11 03:49:42;;;;;;;7.18;6.60;;;;;;;-0.84;71.63;100617.91;4215082;28;20296;-57
2022/12/11 03:51:47;;;;;;;6.78;6.28;;;;;;;-0.87;71.90;100610.16;4214292;28;20229;-59
2022/12/11 03:53:49;;;;;;;6.57;6.07;;;;;;;-0.86;72.09;100616.31;4215023;28;20273;-60
2022/12/11 03:55:51;;;;;;;8.02;7.30;;;;;;;-0.85;72.07;100623.31;4211495;28;20355;-58
2022/12/11 03:57:54;;;;;;;6.15;5.75;;;;;;;-0.83;72.08;100624.06;4212673;28;20224;-60
2022/12/11 03:59:56;;;;;;;7.72;7.10;;;;;;;-0.83;72.03;100627.56;4212596;28;20297;-59
2022/12/11 04:01:59;;;;;;;6.60;6.10;;;;;;;-0.84;71.89;100617.91;4213308;28;20324;-58
2022/12/11 04:04:01;;;;;;;5.47;5.18;;;;;;;-0.83;71.95;100624.94;4214413;28;20281;-58
2022/12/11 04:06:03;;;;;;;7.00;6.45;;;;;;;-0.83;72.07;100618.75;4213782;28;20319;-60
2022/12/11 04:08:07;;;;;;;9.07;8.27;;;;;;;-0.83;72.00;100611.66;4214329;28;20622;-60
2022/12/11 04:10:10;;;;;;;8.55;7.85;;;;;;;-0.80;72.19;100619.41;4214044;28;20289;-56
2022/12/11 04:12:12;;;;;;;8.15;7.47;;;;;;;-0.81;71.77;100620.34;4214422;28;20225;-60
2022/12/11 04:16:34;;;;;;;7.65;7.00;;;;;;;-0.79;72.32;100617.59;4213452;28;20317;-60
2022/12/11 04:25:38;;;;;;;9.27;8.43;;;;;;;-0.81;71.99;100624.81;4203505;28;20627;-55
2022/12/11 04:27:49;;;;;;;7.13;6.63;;;;;;;-0.81;71.99;100619.50;4210586;28;20664;-59
2022/12/11 04:29:51;;;;;;;7.25;6.72;;;;;;;-0.79;72.04;100612.28;4213901;28;20311;-59
2022/12/11 04:31:54;;;;;;;8.35;7.65;;;;;;;-0.80;71.97;100615.88;4213437;28;20313;-56
2022/12/11 04:33:56;;;;;;;6.57;6.18;;;;;;;-0.83;72.08;100603.72;4212678;28;20293;-55
2022/12/11 04:35:59;;;;;;;7.40;6.82;;;;;;;-0.80;72.16;100605.28;4213401;28;20328;-55
2022/12/11 04:38:02;;;;;;;8.88;8.13;;;;;;;-0.80;72.48;100598.19;4214278;28;20738;-57
2022/12/11 04:40:07;;;;;;;8.20;7.57;;;;;;;-0.80;72.18;100594.66;4213544;28;20274;-56
2022/12/11 04:42:10;;;;;;;7.40;6.82;;;;;;;-0.76;72.23;100602.31;4213428;28;20630;-54
2022/12/11 04:44:12;;;;;;;7.43;6.85;;;;;;;-0.77;71.78;100599.75;4214402;28;20231;-58
2022/12/11 04:46:15;;;;;;;8.10;7.50;;;;;;;-0.80;71.52;100595.53;4199858;28;20767;-58
2022/12/11 04:48:18;;;;;;;7.60;7.00;;;;;;;-0.80;71.85;100599.97;4214101;28;20300;-57
2022/12/11 04:50:20;;;;;;;7.43;6.85;;;;;;;-0.81;71.72;100595.66;4213344;28;20319;-59
2022/12/11 04:52:22;;;;;;;7.70;7.10;;;;;;;-0.79;71.60;100599.03;4213856;28;20285;-57
2022/12/11 04:54:24;;;;;;;7.55;7.05;;;;;;;-0.80;71.55;100606.16;4213997;28;20757;-57
2022/12/11 04:56:28;;;;;;;7.05;6.55;;;;;;;-0.81;71.79;100600.94;4208184;28;20314;-56
2022/12/11 04:58:31;;;;;;;7.95;7.35;;;;;;;-0.80;72.02;100603.50;4213991;28;20775;-58
2022/12/11 05:00:33;;;;;;;7.68;7.07;;;;;;;-0.79;72.13;100593.72;4212768;28;20640;-59
2022/12/11 05:02:36;;;;;;;8.27;7.68;;;;;;;-0.81;72.02;100604.44;4213833;28;20281;-58
2022/12/11 05:04:38;;;;;;;7.90;7.30;;;;;;;-0.81;72.33;100599.13;4213448;28;20304;-58
2022/12/11 05:06:41;;;;;;;7.82;7.22;;;;;;;-0.79;72.25;100602.53;4212732;28;20317;-57
2022/12/11 05:08:44;;;;;;;8.10;7.50;;;;;;;-0.81;72.14;100601.78;4211711;28;20302;-57
2022/12/11 05:10:55;;;;;;;6.93;6.47;;;;;;;-0.80;72.24;100602.63;4213044;28;20811;-59
2022/12/11 05:12:59;;;;;;;6.57;6.18;;;;;;;-0.81;72.14;100596.50;4213963;28;20279;-58
2022/12/11 05:15:01;;;;;;;9.43;8.63;;;;;;;-0.83;72.05;100595.75;4212674;28;20247;-59
2022/12/11 05:17:06;;;;;;;7.70;7.10;;;;;;;-0.82;72.19;100589.47;4213618;28;20285;-58
2022/12/11 05:19:08;;;;;;;7.57;7.03;;;;;;;-0.81;72.40;100590.34;4213715;28;20241;-58
2022/12/11 05:21:12;;;;;;;6.78;6.38;;;;;;;-0.83;72.32;100595.75;4212827;28;20314;-59
2022/12/11 05:23:15;;;;;;;8.15;7.47;;;;;;;-0.86;72.40;100582.72;4210474;28;20301;-57
2022/12/11 05:25:17;;;;;;;9.23;8.48;;;;;;;-0.82;72.37;100597.44;4192256;28;20277;-59
2022/12/11 05:27:19;;;;;;;8.80;8.10;;;;;;;-0.83;72.41;100601.06;4213473;28;20325;-58
2022/12/11 05:29:23;;;;;;;6.80;6.32;;;;;;;-0.81;72.50;100596.50;4213600;28;20256;-60
2022/12/11 05:31:27;;;;;;;8.63;7.93;;;;;;;-0.85;72.55;100592.34;4212493;28;20317;-60
2022/12/11 05:33:29;;;;;;;7.97;7.38;;;;;;;-0.83;72.73;100593.09;4212982;28;20244;-56
2022/12/11 05:35:32;;;;;;;8.52;7.82;;;;;;;-0.83;72.83;100593.09;4214818;28;20695;-57
2022/12/11 05:37:34;;;;;;;7.55;6.95;;;;;;;-0.84;73.10;100591.41;4213444;28;20614;-56
2022/12/11 05:39:39;;;;;;;8.57;7.93;;;;;;;-0.81;73.14;100599.13;4212086;28;20319;-56
2022/12/11 05:41:41;;;;;;;8.98;8.18;;;;;;;-0.83;73.28;100593.09;4196773;28;20315;-58
2022/12/11 05:43:44;;;;;;;7.90;7.30;;;;;;;-0.81;73.23;100593.84;4206827;28;20269;-57
2022/12/11 05:45:47;;;;;;;7.95;7.35;;;;;;;-0.82;73.41;100580.69;4200550;28;20316;-58
2022/12/11 05:47:50;;;;;;;6.85;6.38;;;;;;;-0.86;73.23;100587.16;4202851;28;20313;-61
2022/12/11 05:49:52;;;;;;;7.03;6.53;;;;;;;-0.87;73.39;100588.97;4208243;28;20303;-58
2022/12/11 05:51:54;;;;;;;7.55;7.05;;;;;;;-0.85;73.54;100578.25;4212168;28;20322;-57
2022/12/11 05:53:58;;;;;;;6.18;5.82;;;;;;;-0.85;73.56;100583.56;4212237;28;20286;-58
2022/12/11 05:56:02;;;;;;;7.75;7.15;;;;;;;-0.82;73.83;100580.69;4201552;28;20233;-58
2022/12/11 05:58:04;;;;;;;8.40;7.78;;;;;;;-0.81;73.55;100580.56;4208959;28;20275;-58
2022/12/11 06:00:08;;;;;;;9.20;8.50;;;;;;;-0.78;73.60;100577.72;4202539;28;20286;-55
2022/12/11 06:02:12;;;;;;;9.57;8.77;;;;;;;-0.81;73.15;100580.56;4211199;28;20292;-56
2022/12/11 06:04:16;;;;;;;9.30;8.52;;;;;;;-0.82;73.26;100580.69;4212976;28;20273;-57
2022/12/11 06:06:19;;;;;;;9.07;8.30;;;;;;;-0.80;73.31;100576.09;4211731;28;20636;-59
2022/12/11 06:08:21;;;;;;;8.63;7.97;;;;;;;-0.79;73.33;100577.81;4209608;28;20296;-58
2022/12/11 06:10:23;;;;;;;8.95;8.25;;;;;;;-0.79;73.28;100583.97;4207452;28;20334;-59
2022/12/11 06:12:27;;;;;;;7.88;7.32;;;;;;;-0.77;73.17;100581.19;4203938;28;20224;-58
2022/12/11 06:14:29;;;;;;;7.50;6.95;;;;;;;-0.82;73.17;100578.88;4212882;28;20288;-58
2022/12/11 06:16:31;;;;;;;8.23;7.55;;;;;;;-0.83;73.23;100582.50;4211255;28;20769;-57
2022/12/11 06:18:36;;;;;;;8.15;7.55;;;;;;;-0.84;73.32;100586.09;4208159;28;20301;-59
2022/12/11 06:20:39;;;;;;;8.02;7.43;;;;;;;-0.87;73.18;100583.66;4203747;28;20271;-59
2022/12/11 06:22:41;;;;;;;7.43;6.85;;;;;;;-0.88;73.25;100587.25;4212757;28;20293;-58
2022/12/11 06:24:43;;;;;;;7.88;7.28;;;;;;;-0.87;73.28;100580.16;4208084;28;20270;-59
2022/12/11 06:26:46;;;;;;;8.43;7.72;;;;;;;-0.90;72.97;100570.63;4205977;28;20666;-56
2022/12/11 06:28:49;;;;;;;10.80;9.80;;;;;;;-0.86;72.94;100571.22;4193284;28;20360;-57
2022/12/11 06:30:51;;;;;;;7.57;7.07;;;;;;;-0.90;72.45;100578.56;4211660;28;20323;-59
2022/12/11 06:32:53;;;;;;;7.72;7.22;;;;;;;-0.92;72.31;100572.53;4207943;28;20758;-59
2022/12/11 06:34:57;;;;;;;11.07;10.00;;;;;;;-0.93;72.12;100573.47;4204991;28;20375;-58
2022/12/11 06:36:59;;;;;;;7.82;7.22;;;;;;;-0.96;71.88;100573.69;4210640;28;20220;-57
2022/12/11 06:39:01;;;;;;;7.28;6.70;;;;;;;-0.98;71.63;100579.09;4212168;28;20292;-59
2022/12/11 06:41:05;;;;;;;8.40;7.75;;;;;;;-1.03;71.44;100572.44;4211303;28;20312;-58
2022/12/11 06:43:07;;;;;;;9.35;8.63;;;;;;;-1.03;71.78;100575.09;4211198;28;20276;-56
2022/12/11 06:45:11;;;;;;;10.63;9.82;;;;;;;-1.05;71.90;100576.97;4208240;28;20291;-59
2022/12/11 06:47:13;;;;;;;8.93;8.30;;;;;;;-1.02;71.94;100580.28;4205599;28;20273;-59
2022/12/11 06:49:15;;;;;;;8.05;7.53;;;;;;;-1.06;71.61;100583.25;4212221;28;20237;-58
2022/12/11 06:51:21;;;;;;;9.00;8.35;;;;;;;-1.10;71.27;100588.75;4211615;28;20304;-60
2022/12/11 06:53:23;;;;;;;8.75;8.18;;;;;;;-1.11;70.96;100589.72;4200593;28;20281;-59
2022/12/11 06:55:26;;;;;;;8.63;8.02;;;;;;;-1.14;70.97;100586.44;4210773;28;20320;-59
2022/12/11 06:57:28;;;;;;;8.85;8.25;;;;;;;-1.11;70.90;100594.16;4209404;28;20224;-59
2022/12/11 06:59:30;;;;;;;8.60;8.00;;;;;;;-1.14;70.68;100589.06;4211880;28;20306;-59
2022/12/11 07:01:33;;;;;;;8.13;7.55;;;;;;;-1.17;70.68;100592.78;4211885;28;20806;-59
2022/12/11 07:03:35;;;;;;;22.53;20.67;;;;;;;-1.19;70.34;100594.69;4203600;28;20310;-58
2022/12/11 07:05:37;;;;;;;0.87;0.87;;;;;;;-1.16;70.49;100601.56;4206004;28;20317;-56
2022/12/11 07:07:41;;;;;;;2.57;2.43;;;;;;;-1.11;70.75;100592.34;4214047;28;20286;-55
2022/12/11 07:09:43;;;;;;;12.40;11.57;;;;;;;-1.04;70.19;100595.44;4214861;28;20308;-56
2022/12/11 07:11:46;;;;;;;157.40;147.53;;;;;;;-1.00;70.22;100591.63;4214006;28;20300;-56
2022/12/11 07:13:49;;;;;;;97.93;90.20;;;;;;;-0.99;69.82;100593.31;4215452;28;20284;-58
2022/12/11 07:15:51;;;;;;;1.20;1.20;;;;;;;-0.99;69.55;100593.31;4213850;28;20304;-55
2022/12/11 07:17:53;;;;;;;1.57;1.50;;;;;;;-1.01;69.41;100600.53;4213957;28;20202;-54
2022/12/11 07:19:56;;;;;;;121.10;114.57;;;;;;;-1.01;69.38;100600.53;4214635;28;20297;-59
2022/12/11 07:21:58;;;;;;;365.73;337.17;;;;;;;-1.01;69.22;100597.88;4202674;28;20309;-58
2022/12/11 07:24:02;;;;;;;43.50;40.53;;;;;;;-1.01;69.25;100594.38;4211729;28;20810;-57
2022/12/11 07:26:05;;;;;;;343.00;318.83;;;;;;;-1.00;69.45;100599.56;4209900;28;20309;-54
2022/12/11 07:28:07;;;;;;;482.70;437.90;;;;;;;-0.99;69.53;100592.47;4211554;28;20300;-57
2022/12/11 07:30:11;;;;;;;124.43;114.43;;;;;;;-0.96;69.62;100595.75;4213943;28;20277;-54
2022/12/11 07:32:13;;;;;;;469.93;422.30;;;;;;;-0.97;69.13;100602.00;4214425;28;20302;-58
2022/12/11 07:34:16;;;;;;;31.53;25.87;;;;;;;-1.03;68.79;100604.25;4215393;28;20316;-59
2022/12/11 07:36:18;;;;;;;504.27;465.90;;;;;;;-1.04;68.96;100606.03;4204071;28;20313;-59
2022/12/11 07:38:20;;;;;;;494.27;406.43;;;;;;;-1.00;69.25;100607.53;4214180;28;20202;-57
2022/12/11 07:40:24;;;;;;;455.53;304.47;;;;;;;-0.97;69.06;100609.09;4216298;28;20308;-57
2022/12/11 07:42:26;;;;;;;237.83;217.10;;;;;;;-0.97;69.39;100604.66;4207217;28;20350;-55
2022/12/11 07:44:29;;;;;;;482.10;404.00;;;;;;;-0.96;69.17;100605.50;4211269;28;20281;-56
2022/12/11 07:46:32;;;;;;;559.57;502.67;;;;;;;-1.00;69.04;100612.81;4212760;28;20902;-57
2022/12/11 07:48:35;;;;;;;67.10;60.17;;;;;;;-1.02;69.31;100609.44;4214502;28;20312;-57
2022/12/11 07:50:37;;;;;;;604.97;547.30;;;;;;;-1.00;69.50;100615.47;4213450;28;20981;-54
2022/12/11 07:52:39;;;;;;;472.27;424.80;;;;;;;-0.96;69.36;100616.09;4214638;28;20820;-56
2022/12/11 07:54:42;;;;;;;433.47;247.33;;;;;;;-0.95;69.62;100615.16;4214571;28;20280;-58
2022/12/11 07:56:47;;;;;;;431.40;341.97;;;;;;;-0.93;69.42;100611.44;4209093;28;20762;-59
2022/12/11 07:58:49;;;;;;;475.33;385.73;;;;;;;-0.98;69.13;100602.97;4208317;28;20213;-57
2022/12/11 08:00:52;;;;;;;450.00;298.07;;;;;;;-1.00;68.62;100615.47;4205289;28;20543;-56
2022/12/11 08:02:54;;;;;;;436.00;290.23;;;;;;;-1.02;68.50;100609.44;4206678;28;20285;-57
2022/12/11 08:04:57;;;;;;;610.47;557.67;;;;;;;-1.06;67.82;100615.06;4205190;28;20284;-56
2022/12/11 08:06:59;;;;;;;460.77;315.63;;;;;;;-1.05;67.73;100606.13;4212788;28;21410;-58
2022/12/11 08:09:04;;;;;;;448.60;315.23;;;;;;;-1.10;66.93;100607.31;4212914;28;20723;-64
2022/12/11 08:11:08;;;;;;;454.67;334.90;;;;;;;-1.10;66.91;100615.28;4213222;28;20312;-59
2022/12/11 08:13:11;;;;;;;457.03;334.67;;;;;;;-1.12;66.48;100611.00;4214297;28;20304;-60
2022/12/11 08:15:14;;;;;;;463.47;378.80;;;;;;;-1.13;66.36;100615.47;4212578;28;20608;-58
2022/12/11 08:17:16;;;;;;;447.67;298.43;;;;;;;-1.13;66.32;100610.19;4213746;28;20776;-57
2022/12/11 08:19:18;;;;;;;418.10;236.03;;;;;;;-1.11;66.06;100608.25;4213872;28;20301;-60
2022/12/11 08:21:22;;;;;;;435.53;236.10;;;;;;;-1.14;65.86;100616.41;4212249;28;20304;-59
2022/12/11 08:23:24;;;;;;;427.53;253.07;;;;;;;-1.15;65.92;100617.38;4213432;28;20285;-60
2022/12/11 08:25:27;;;;;;;395.23;172.03;;;;;;;-1.18;65.77;100612.28;4212480;28;20321;-58
2022/12/11 08:27:29;;;;;;;448.97;252.03;;;;;;;-1.18;66.04;100616.72;4212848;28;20650;-59
2022/12/11 08:29:34;;;;;;;458.33;294.23;;;;;;;-1.18;65.80;100617.56;4213507;28;20381;-59
2022/12/11 08:31:36;;;;;;;452.70;326.60;;;;;;;-1.19;65.71;100615.91;4207631;28;20317;-59
2022/12/11 08:33:40;;;;;;;441.93;262.73;;;;;;;-1.17;65.74;100611.31;4208925;28;20281;-59
2022/12/11 08:35:42;;;;;;;435.93;245.27;;;;;;;-1.15;65.90;100617.38;4212089;28;20321;-59
2022/12/11 08:37:48;;;;;;;433.43;248.63;;;;;;;-1.18;65.66;100614.09;4213297;28;20305;-60
2022/12/11 08:39:50;;;;;;;426.77;226.80;;;;;;;-1.19;65.50;100620.31;4213873;28;20288;-58
2022/12/11 08:41:53;;;;;;;419.47;215.33;;;;;;;-1.22;65.52;100615.22;4212447;28;20317;-59
2022/12/11 08:43:57;;;;;;;417.23;219.27;;;;;;;-1.20;65.85;100623.94;4213094;28;20277;-59
2022/12/11 08:46:01;;;;;;;412.87;204.50;;;;;;;-1.16;65.80;100618.34;4211734;28;20803;-58
2022/12/11 08:48:03;;;;;;;595.27;535.90;;;;;;;-1.20;65.36;100622.13;4209783;28;20285;-59
2022/12/11 08:50:06;;;;;;;522.87;465.03;;;;;;;-1.20;65.20;100621.28;4211386;28;20305;-58
2022/12/11 08:52:09;;;;;;;575.07;516.43;;;;;;;-1.20;65.33;100622.13;4193957;28;20285;-56
2022/12/11 08:54:11;;;;;;;477.93;362.40;;;;;;;-1.19;65.04;100613.25;4211005;28;20800;-58
2022/12/11 08:56:18;;;;;;;503.97;445.73;;;;;;;-1.21;65.13;100612.47;4206477;28;20658;-58
2022/12/11 08:58:21;;;;;;;498.37;421.63;;;;;;;-1.21;65.34;100611.63;4194176;28;20308;-57
2022/12/11 09:00:23;;;;;;;488.40;380.93;;;;;;;-1.18;65.40;100614.09;4200213;28;20272;-57
2022/12/11 09:02:27;;;;;;;469.90;325.97;;;;;;;-1.21;65.18;100611.63;4211614;28;20305;-59
2022/12/11 09:04:29;;;;;;;483.73;379.33;;;;;;;-1.21;65.15;100611.63;4207494;28;20655;-59
2022/12/11 09:06:33;;;;;;;454.30;295.17;;;;;;;-1.21;65.18;100612.47;4204075;28;20341;-59
2022/12/11 09:08:36;;;;;;;491.23;405.57;;;;;;;-1.20;65.15;100613.34;4201424;28;20306;-59
2022/12/11 09:10:38;;;;;;;470.97;365.03;;;;;;;-1.20;65.23;100619.50;4207650;28;20314;-59
2022/12/11 09:12:41;;;;;;;338.40;207.50;;;;;;;-1.18;65.31;100616.72;4207588;28;20309;-59
2022/12/11 09:14:43;;;;;;;449.60;311.90;;;;;;;-1.21;65.50;100623.06;4206307;28;20297;-56
2022/12/11 09:16:46;;;;;;;440.57;271.30;;;;;;;-1.19;65.40;100621.19;4206589;28;20308;-58
2022/12/11 09:18:51;;;;;;;473.83;348.07;;;;;;;-1.23;65.59;100617.03;4204391;28;21053;-54
2022/12/11 09:21:00;;;;;;;448.67;290.73;;;;;;;-1.18;65.74;100622.03;4200488;28;20745;-58
2022/12/11 09:23:03;;;;;;;434.97;268.53;;;;;;;-1.19;65.48;100615.03;4204188;28;20276;-57
2022/12/11 09:25:06;;;;;;;13.43;12.30;;;;;;;-1.19;65.63;100615.03;4182827;28;20290;-57
2022/12/11 09:27:08;;;;;;;9.93;9.13;;;;;;;-1.20;65.91;100623.94;4200050;28;20277;-57
2022/12/11 09:29:11;;;;;;;10.57;9.77;;;;;;;-1.21;66.22;100623.06;4209192;28;20328;-58
2022/12/11 09:31:14;;;;;;;9.18;8.38;;;;;;;-1.24;65.89;100615.34;4206480;28;20308;-59
2022/12/11 09:33:17;;;;;;;8.93;8.13;;;;;;;-1.23;66.42;100616.19;4209146;28;20291;-56
2022/12/11 09:35:20;;;;;;;10.85;9.85;;;;;;;-1.22;66.12;100617.88;4202161;28;20324;-59
2022/12/11 09:37:23;;;;;;;9.43;8.60;;;;;;;-1.21;66.62;100611.63;4205017;28;20280;-59